Skip Navigation

Christman Field Latest Observations

Switch to english unitsOther observation timesWeekly graphs

Date Time
MST
Temp
°C
RH
%
DewPt
°C
Wind
m/s
Dir
°
Gust
m/s
Dir
°
Press
hPa
Solar
W/m^2
Prec
mm
2018-08-20 06:25 9.9 87.0 7.8 0.0 42 0.0 42 849.34 86.0 0.00
2018-08-20 06:20 9.6 86.8 7.5 0.0 42 0.0 42 849.33 76.3 0.00
2018-08-20 06:15 9.4 87.8 7.5 0.0 42 0.0 42 849.32 66.1 0.00
2018-08-20 06:10 9.4 87.2 7.4 0.0 42 0.0 42 849.31 56.3 0.00
2018-08-20 06:05 9.4 87.7 7.5 0.1 42 0.5 121 849.32 47.6 0.00
2018-08-20 06:00 9.7 84.6 7.2 0.0 128 0.0 128 849.31 39.8 0.00
2018-08-20 05:55 9.8 85.2 7.5 0.0 128 0.0 128 849.28 32.8 0.00
2018-08-20 05:50 10.3 83.4 7.6 0.1 128 0.5 125 849.29 26.9 0.00
2018-08-20 05:45 10.5 82.3 7.7 0.8 125 1.3 98 849.17 21.5 0.00
2018-08-20 05:40 10.5 82.7 7.7 1.1 107 2.2 108 849.07 16.6 0.00
2018-08-20 05:35 10.8 84.1 8.2 1.2 110 1.9 87 849.07 12.0 0.00
2018-08-20 05:30 10.9 83.2 8.2 1.0 101 1.6 94 849.07 8.0 0.00
2018-08-20 05:25 11.0 82.9 8.2 0.9 112 1.7 92 849.05 4.8 0.00
2018-08-20 05:20 11.1 82.5 8.2 0.9 113 1.5 99 849.00 3.5 0.00
2018-08-20 05:15 11.3 81.4 8.3 0.7 94 1.2 94 848.99 1.9 0.00
2018-08-20 05:10 11.5 80.5 8.2 0.8 97 1.4 110 848.96 1.0 0.00
2018-08-20 05:05 11.5 80.2 8.2 1.3 109 2.0 116 848.93 0.4 0.00
2018-08-20 05:00 11.7 79.3 8.2 1.2 124 1.9 140 848.87 0.1 0.00
2018-08-20 04:55 11.8 78.1 8.1 1.0 107 1.6 114 848.83 0.0 0.00
2018-08-20 04:50 11.9 77.3 8.0 1.4 105 2.1 132 848.84 0.0 0.00
2018-08-20 04:45 11.9 77.2 8.0 1.5 124 2.2 146 848.85 0.0 0.00
2018-08-20 04:40 11.9 77.0 8.0 1.8 129 2.5 160 848.91 0.0 0.00
2018-08-20 04:35 11.9 77.3 8.0 2.4 147 3.3 162 848.91 0.0 0.00
2018-08-20 04:30 11.8 78.8 8.3 1.3 148 2.5 126 848.87 0.0 0.00
2018-08-20 04:25 11.9 80.1 8.5 1.0 140 1.7 138 848.82 0.0 0.00
2018-08-20 04:20 11.8 80.1 8.5 1.4 143 2.2 138 848.85 0.0 0.00
2018-08-20 04:15 11.8 80.8 8.6 1.5 129 2.5 145 848.90 0.0 0.00
2018-08-20 04:10 11.7 82.2 8.7 1.7 151 2.7 164 848.95 0.0 0.00
2018-08-20 04:05 11.7 83.5 9.0 1.6 162 2.7 162 848.97 0.0 0.00
2018-08-20 04:00 11.7 82.7 8.8 2.0 167 2.6 156 848.97 0.0 0.00